Nova Iguacu, Brazil
Current Conditions -  °F | °C
As of 6:00 AM on Tuesday 27 Jan 2015 (Local Time) from SBAF Reporting Station
Clear Clear  
Wind Chill: 72°   Ceiling: Unl
Heat Index: 72°   Visibility: 6mi
Dew Point: 70°   Wind: 2mph
Humidity: 94%   Direction: 220°SW
Pressure: 29.88"   Gusts: NA
Location:  22.74°S, 43.47°W
Report Text: SBAF 270800Z 22002KT CAVOK 22/21 Q1012
Loading
Personal Weather Stations






























Interactive Weather Map New forecast layout! Learn more

10-Day Weather Forecast

Advertisements
Track Severe Weather on mobile